Victoria Falls, Zimbabwe

6:00 AM CAT on August 28, 2016 (GMT +0200)
Livingstone | | Change Station

Elev 3061 ft 17.85 °S, 25.86 °E | Updated 8 seconds ago

Clear
Clear
54.9 °F
Feels Like 54.9 °F
N
0.4
Wind Variable Wind from North
Gusts 2.2 mph

Today
High -- | Low -- °F
--% Chance of Precip.
Yesterday
High -- | Low -- °F
Precip. -- in
Pressure 30.24 in
Visibility -9999.0 miles
Clouds
Dew Point 33 °F
Humidity 44%
Rainfall 0.00 in
Snow Depth Not available.
6:26 AM 6:08 PM
Waning Crescent, 19% visible
METAR FBKE 280300Z 12008KT CAVOK 14/M03 Q1024
Pressure 30.24 in
Visibility -9999.0 miles
Clouds
Dew Point 33 °F
Humidity 44%
Rainfall 0.00 in
Snow Depth Not available.
6:26 AM 6:08 PM
Waning Crescent, 19% visible
METAR FBKE 280300Z 12008KT CAVOK 14/M03 Q1024

10-Day Weather Forecast

No radar image for this location.
×

Almanac

Astronomy

Aug. 28, 2016 Rise Set
Actual Time
Civil Twilight
Nautical Twilight
Astronomical Twilight
Moon
Length of Visible Light
Length of Day
Tomorrow will be .
, % of the Moon is Illuminated

Today's Extremes

Country Highs Country Lows

Community

WunderPhotos

Upload Photos

1,935,519 photos uploaded!

WunderBlog® & News

Nearby

Air Quality

  Air Quality AQ Index Pollutant
Not available.

Snow Depth

Station Depth Elevation

Earthquake Activity

City Distance Mag. Time & Date
Minimum magnitude displayed is 2.5.

Coastal Water Temperatures

Place Temperature

Stations

Nearby Weather Stations

Station Location Temp. Windchill Dew Point Humidity Wind Precip. Elev Updated Type